createdAt,value
2023-01-11T00:00:44.439Z,967.14
2023-01-11T00:01:34.436Z,967.12
2023-01-11T00:02:24.456Z,967.13
2023-01-11T00:03:14.410Z,967.14
2023-01-11T00:04:04.409Z,967.09
2023-01-11T00:04:54.479Z,967.07
2023-01-11T00:05:44.379Z,967.06
2023-01-11T00:06:34.419Z,967.07
2023-01-11T00:07:24.479Z,967.14
2023-01-11T00:08:14.367Z,967.06
2023-01-11T00:09:04.355Z,967.06
2023-01-11T00:09:54.347Z,967.07
2023-01-11T00:10:44.337Z,967.09
2023-01-11T00:11:34.325Z,967.05
2023-01-11T00:12:24.326Z,967.04
2023-01-11T00:13:14.309Z,967.06
2023-01-11T00:14:04.303Z,967.04
2023-01-11T00:14:54.306Z,966.99
2023-01-11T00:15:44.277Z,966.96
2023-01-11T00:16:34.281Z,966.93
2023-01-11T00:17:24.254Z,967.00
2023-01-11T00:18:14.256Z,966.98
2023-01-11T00:19:04.243Z,967.00
2023-01-11T00:19:54.247Z,967.01
2023-01-11T00:20:44.216Z,967.02
2023-01-11T00:21:34.204Z,966.93
2023-01-11T00:22:24.194Z,966.88
2023-01-11T00:23:14.183Z,966.87
2023-01-11T00:24:04.201Z,966.85
2023-01-11T00:24:54.170Z,966.88
2023-01-11T00:25:44.164Z,966.88
2023-01-11T00:26:34.156Z,966.82
2023-01-11T00:27:24.141Z,966.80
2023-01-11T00:28:14.135Z,966.79
2023-01-11T00:29:04.132Z,966.79
2023-01-11T00:29:54.121Z,966.79
2023-01-11T00:30:44.112Z,966.78
2023-01-11T00:31:34.126Z,966.72
2023-01-11T00:32:24.090Z,966.74
2023-01-11T00:33:14.096Z,966.69
2023-01-11T00:34:04.081Z,966.74
2023-01-11T00:34:54.075Z,966.74
2023-01-11T00:35:44.053Z,966.68
2023-01-11T00:36:34.045Z,966.67
2023-01-11T00:37:24.030Z,966.65
2023-01-11T00:38:14.031Z,966.64
2023-01-11T00:39:04.022Z,966.65
2023-01-11T00:39:54.001Z,966.67
2023-01-11T00:40:43.989Z,966.70
2023-01-11T00:41:33.993Z,966.66
2023-01-11T00:42:23.979Z,966.61
2023-01-11T00:43:13.968Z,966.64
2023-01-11T00:44:03.969Z,966.64
2023-01-11T00:44:53.948Z,966.60
2023-01-11T00:45:43.944Z,966.58
2023-01-11T00:46:33.958Z,966.59
2023-01-11T00:47:23.918Z,966.56
2023-01-11T00:48:13.905Z,966.53
2023-01-11T00:49:03.915Z,966.53
2023-01-11T00:49:53.896Z,966.53
2023-01-11T00:50:43.881Z,966.50
2023-01-11T00:51:33.889Z,966.44
2023-01-11T00:52:23.867Z,966.48
2023-01-11T00:53:13.858Z,966.41
2023-01-11T00:54:03.856Z,966.45
2023-01-11T00:54:53.841Z,966.46
2023-01-11T00:55:43.826Z,966.42
2023-01-11T00:56:33.816Z,966.42
2023-01-11T00:57:23.806Z,966.39
2023-01-11T00:58:13.844Z,966.35
2023-01-11T00:59:03.806Z,966.32
2023-01-11T00:59:53.781Z,966.36
2023-01-11T01:00:43.780Z,966.34
2023-01-11T01:01:33.820Z,966.41
2023-01-11T01:02:23.776Z,966.47
2023-01-11T01:03:13.749Z,966.46
2023-01-11T01:04:03.760Z,966.46
2023-01-11T01:04:53.730Z,966.50
2023-01-11T01:05:43.719Z,966.49
2023-01-11T01:06:33.742Z,966.50
2023-01-11T01:07:23.705Z,966.51
2023-01-11T01:08:13.693Z,966.53
2023-01-11T01:09:03.696Z,966.50
2023-01-11T01:09:53.669Z,966.46
2023-01-11T01:10:43.691Z,966.48
2023-01-11T01:11:33.656Z,966.48
2023-01-11T01:12:23.643Z,966.45
2023-01-11T01:13:13.633Z,966.44
2023-01-11T01:14:03.642Z,966.45
2023-01-11T01:14:53.636Z,966.45
2023-01-11T01:15:43.706Z,966.38
2023-01-11T01:16:41.457Z,966.37
2023-01-11T01:17:23.573Z,966.38
2023-01-11T01:18:13.568Z,966.40
2023-01-11T01:19:03.566Z,966.43
2023-01-11T01:19:53.558Z,966.41
2023-01-11T01:20:43.554Z,966.49
2023-01-11T01:21:33.536Z,966.53
2023-01-11T01:22:23.567Z,966.50
2023-01-11T01:23:13.523Z,966.46
2023-01-11T01:24:03.546Z,966.51
2023-01-11T01:24:53.506Z,966.51
2023-01-11T01:25:43.506Z,966.47
2023-01-11T01:26:33.487Z,966.49
2023-01-11T01:27:23.469Z,966.46
2023-01-11T01:28:13.465Z,966.49
2023-01-11T01:29:03.487Z,966.45
2023-01-11T01:29:53.455Z,966.49
2023-01-11T01:30:43.434Z,966.50
2023-01-11T01:31:33.490Z,966.44
2023-01-11T01:32:23.414Z,966.38
2023-01-11T01:33:13.417Z,966.35
2023-01-11T01:34:03.416Z,966.41
2023-01-11T01:34:53.396Z,966.44
2023-01-11T01:35:43.378Z,966.53
2023-01-11T01:36:33.376Z,966.48
2023-01-11T01:37:23.374Z,966.45
2023-01-11T01:38:13.380Z,966.47
2023-01-11T01:39:03.374Z,966.38
2023-01-11T01:39:53.334Z,966.38
2023-01-11T01:40:43.331Z,966.37
2023-01-11T01:41:33.317Z,966.40
2023-01-11T01:42:23.304Z,966.45
2023-01-11T01:43:13.333Z,966.40
2023-01-11T01:44:03.301Z,966.36
2023-01-11T01:44:53.282Z,966.30
2023-01-11T01:45:43.261Z,966.31
2023-01-11T01:46:33.348Z,966.28
2023-01-11T01:47:23.259Z,966.32
2023-01-11T01:48:13.250Z,966.31
2023-01-11T01:49:03.244Z,966.29
2023-01-11T01:49:53.220Z,966.24
2023-01-11T01:50:43.214Z,966.30
2023-01-11T01:51:33.208Z,966.30
2023-01-11T01:52:23.200Z,966.35
2023-01-11T01:53:13.189Z,966.37
2023-01-11T01:54:03.191Z,966.23
2023-01-11T01:54:53.172Z,966.20
2023-01-11T01:55:43.175Z,966.23
2023-01-11T01:56:33.149Z,966.31
2023-01-11T01:57:23.154Z,966.31
2023-01-11T01:58:13.128Z,966.22
2023-01-11T01:59:03.138Z,966.29
2023-01-11T01:59:53.138Z,966.23
2023-01-11T02:00:43.109Z,966.21
2023-01-11T02:01:33.193Z,966.23
2023-01-11T02:02:23.154Z,966.19
2023-01-11T02:03:13.087Z,966.22
2023-01-11T02:04:03.100Z,966.20
2023-01-11T02:04:53.067Z,966.22
2023-01-11T02:05:43.051Z,966.19
2023-01-11T02:06:33.060Z,966.18
2023-01-11T02:07:23.028Z,966.13
2023-01-11T02:08:13.016Z,966.11
2023-01-11T02:09:03.023Z,966.14
2023-01-11T02:09:53.008Z,966.14
2023-01-11T02:10:42.999Z,966.09
2023-01-11T02:11:33.013Z,966.12
2023-01-11T02:12:22.966Z,966.09
2023-01-11T02:13:12.964Z,966.12
2023-01-11T02:14:02.969Z,966.10
2023-01-11T02:14:52.955Z,966.08
2023-01-11T02:15:43.036Z,966.09
2023-01-11T02:16:32.937Z,966.02
2023-01-11T02:17:22.915Z,966.04
2023-01-11T02:18:12.913Z,966.06
2023-01-11T02:19:02.946Z,966.03
2023-01-11T02:19:52.898Z,965.97
2023-01-11T02:20:42.873Z,966.02
2023-01-11T02:21:32.887Z,966.01
2023-01-11T02:22:22.853Z,965.97
2023-01-11T02:23:12.856Z,965.97
2023-01-11T02:24:02.853Z,966.02
2023-01-11T02:24:52.842Z,966.01
2023-01-11T02:25:42.823Z,965.98
2023-01-11T02:26:32.813Z,965.97
2023-01-11T02:27:22.804Z,965.94
2023-01-11T02:28:12.799Z,965.92
2023-01-11T02:29:02.806Z,965.95
2023-01-11T02:29:52.775Z,965.93
2023-01-11T02:30:42.763Z,965.94
2023-01-11T02:31:32.826Z,965.94
2023-01-11T02:32:22.767Z,965.95
2023-01-11T02:33:12.762Z,965.85
2023-01-11T02:34:02.748Z,965.83
2023-01-11T02:34:52.722Z,965.85
2023-01-11T02:35:42.712Z,965.87
2023-01-11T02:36:32.700Z,965.90
2023-01-11T02:37:22.707Z,965.91
2023-01-11T02:38:12.682Z,965.92
2023-01-11T02:39:02.682Z,965.89
2023-01-11T02:39:52.700Z,965.87
2023-01-11T02:40:42.653Z,965.88
2023-01-11T02:41:32.660Z,965.87
2023-01-11T02:42:22.638Z,965.90
2023-01-11T02:43:12.643Z,965.91
2023-01-11T02:44:02.643Z,965.87
2023-01-11T02:44:52.614Z,965.82
2023-01-11T02:45:42.606Z,965.78
2023-01-11T02:46:32.628Z,965.83
2023-01-11T02:47:22.578Z,965.79
2023-01-11T02:48:12.571Z,965.82
2023-01-11T02:49:02.572Z,965.84
2023-01-11T02:49:52.561Z,965.77
2023-01-11T02:50:42.543Z,965.78
2023-01-11T02:51:32.532Z,965.74
2023-01-11T02:52:22.526Z,965.68
2023-01-11T02:53:12.510Z,965.74
2023-01-11T02:54:02.519Z,965.74
2023-01-11T02:54:52.499Z,965.69
2023-01-11T02:55:42.495Z,965.70
2023-01-11T02:56:32.481Z,965.70
2023-01-11T02:57:22.479Z,965.69
2023-01-11T02:58:12.459Z,965.68
2023-01-11T02:59:02.500Z,965.72
2023-01-11T02:59:52.437Z,965.69
2023-01-11T03:00:42.439Z,965.63
2023-01-11T03:01:32.450Z,965.60
2023-01-11T03:02:22.416Z,965.55
2023-01-11T03:03:12.451Z,965.57
2023-01-11T03:04:02.424Z,965.56
2023-01-11T03:04:52.385Z,965.64
2023-01-11T03:05:42.381Z,965.57
2023-01-11T03:06:32.429Z,965.61
2023-01-11T03:07:22.356Z,965.64
2023-01-11T03:08:12.348Z,965.57
2023-01-11T03:09:02.383Z,965.58
2023-01-11T03:09:52.324Z,965.58
2023-01-11T03:10:42.325Z,965.56
2023-01-11T03:11:32.307Z,965.60
2023-01-11T03:12:22.308Z,965.54
2023-01-11T03:13:12.309Z,965.53
2023-01-11T03:14:02.320Z,965.56
2023-01-11T03:14:52.266Z,965.47
2023-01-11T03:15:42.315Z,965.49
2023-01-11T03:16:32.254Z,965.52
2023-01-11T03:17:22.273Z,965.54
2023-01-11T03:18:12.232Z,965.52
2023-01-11T03:19:02.245Z,965.50
2023-01-11T03:19:52.215Z,965.52
2023-01-11T03:20:42.213Z,965.48
2023-01-11T03:21:32.203Z,965.47
2023-01-11T03:22:22.206Z,965.43
2023-01-11T03:23:12.205Z,965.42
2023-01-11T03:24:02.199Z,965.37
2023-01-11T03:24:52.154Z,965.36
2023-01-11T03:25:42.159Z,965.44
2023-01-11T03:26:32.143Z,965.39
2023-01-11T03:27:22.132Z,965.38
2023-01-11T03:28:12.127Z,965.35
2023-01-11T03:29:02.133Z,965.31
2023-01-11T03:29:52.103Z,965.31
2023-01-11T03:30:42.091Z,965.27
2023-01-11T03:31:32.186Z,965.27
2023-01-11T03:32:22.075Z,965.30
2023-01-11T03:33:12.077Z,965.23
2023-01-11T03:34:02.071Z,965.24
2023-01-11T03:34:59.030Z,965.25
2023-01-11T03:35:42.028Z,965.21
2023-01-11T03:36:32.018Z,965.20
2023-01-11T03:37:22.014Z,965.21
2023-01-11T03:38:12.010Z,965.23
2023-01-11T03:39:02.019Z,965.22
2023-01-11T03:39:52.003Z,965.16
2023-01-11T03:40:41.981Z,965.18
2023-01-11T03:41:31.971Z,965.17
2023-01-11T03:42:21.968Z,965.16
2023-01-11T03:43:11.951Z,965.20
2023-01-11T03:44:01.986Z,965.24
2023-01-11T03:44:51.931Z,965.21
2023-01-11T03:45:41.928Z,965.19
2023-01-11T03:46:31.950Z,965.11
2023-01-11T03:47:21.919Z,965.13
2023-01-11T03:48:11.900Z,965.21
2023-01-11T03:49:01.906Z,965.23
2023-01-11T03:49:51.866Z,965.13
2023-01-11T03:50:41.866Z,965.14
2023-01-11T03:51:31.861Z,965.13
2023-01-11T03:52:21.848Z,965.11
2023-01-11T03:53:11.857Z,965.13
2023-01-11T03:54:01.854Z,965.14
2023-01-11T03:54:51.819Z,965.20
2023-01-11T03:55:41.821Z,965.14
2023-01-11T03:56:31.795Z,965.10
2023-01-11T03:57:21.798Z,965.12
2023-01-11T03:58:11.788Z,965.22
2023-01-11T03:59:01.795Z,965.19
2023-01-11T03:59:51.765Z,965.14
2023-01-11T04:00:41.808Z,965.07
2023-01-11T04:01:31.744Z,965.10
2023-01-11T04:02:21.733Z,965.09
2023-01-11T04:03:11.724Z,965.04
2023-01-11T04:04:01.784Z,965.08
2023-01-11T04:04:51.727Z,964.99
2023-01-11T04:05:41.695Z,965.01
2023-01-11T04:06:31.703Z,965.13
2023-01-11T04:07:21.682Z,965.03
2023-01-11T04:08:11.704Z,964.95
2023-01-11T04:09:01.674Z,965.00
2023-01-11T04:09:51.643Z,964.89
2023-01-11T04:10:41.644Z,964.97
2023-01-11T04:11:31.633Z,964.97
2023-01-11T04:12:21.626Z,964.92
2023-01-11T04:13:11.611Z,964.86
2023-01-11T04:14:01.648Z,964.88
2023-01-11T04:14:51.605Z,964.87
2023-01-11T04:15:41.588Z,964.88
2023-01-11T04:16:31.623Z,964.95
2023-01-11T04:17:21.570Z,964.84
2023-01-11T04:18:11.567Z,964.80
2023-01-11T04:19:01.601Z,964.85
2023-01-11T04:19:51.543Z,964.91
2023-01-11T04:20:41.535Z,964.94
2023-01-11T04:21:31.528Z,964.89
2023-01-11T04:22:21.520Z,964.87
2023-01-11T04:23:11.504Z,964.91
2023-01-11T04:24:01.511Z,964.94
2023-01-11T04:24:51.523Z,964.91
2023-01-11T04:25:41.470Z,964.88
2023-01-11T04:26:31.468Z,964.81
2023-01-11T04:27:21.455Z,964.77
2023-01-11T04:28:11.450Z,964.73
2023-01-11T04:29:01.464Z,964.79
2023-01-11T04:29:51.432Z,964.79
2023-01-11T04:30:41.422Z,964.75
2023-01-11T04:31:31.412Z,964.73
2023-01-11T04:32:21.419Z,964.78
2023-01-11T04:33:11.386Z,964.74
2023-01-11T04:34:01.389Z,964.71
2023-01-11T04:34:51.370Z,964.84
2023-01-11T04:35:41.377Z,964.71
2023-01-11T04:36:31.422Z,964.72
2023-01-11T04:37:21.355Z,964.64
2023-01-11T04:38:11.333Z,964.70
2023-01-11T04:39:01.340Z,964.69
2023-01-11T04:39:51.340Z,964.66
2023-01-11T04:40:41.306Z,964.72
2023-01-11T04:41:31.322Z,964.68
2023-01-11T04:42:21.389Z,964.65
2023-01-11T04:43:11.282Z,964.65
2023-01-11T04:44:01.283Z,964.65
2023-01-11T04:44:51.251Z,964.59
2023-01-11T04:45:41.267Z,964.66
2023-01-11T04:46:31.238Z,964.59
2023-01-11T04:47:21.226Z,964.51
2023-01-11T04:48:11.222Z,964.58
2023-01-11T04:49:01.224Z,964.61
2023-01-11T04:49:51.207Z,964.52
2023-01-11T04:50:41.271Z,964.58
2023-01-11T04:51:31.188Z,964.51
2023-01-11T04:52:21.173Z,964.49
2023-01-11T04:53:11.187Z,964.47
2023-01-11T04:54:01.170Z,964.46
2023-01-11T04:54:51.139Z,964.54
2023-01-11T04:55:41.156Z,964.50
2023-01-11T04:56:31.129Z,964.34
2023-01-11T04:57:21.122Z,964.39
2023-01-11T04:58:11.104Z,964.45
2023-01-11T04:59:01.159Z,964.43
2023-01-11T04:59:51.119Z,964.48
2023-01-11T05:00:41.130Z,964.39
2023-01-11T05:01:31.146Z,964.30
2023-01-11T05:02:21.055Z,964.34
2023-01-11T05:03:11.064Z,964.40
2023-01-11T05:04:01.148Z,964.38
2023-01-11T05:04:51.031Z,964.37
2023-01-11T05:05:41.025Z,964.33
2023-01-11T05:06:31.045Z,964.25
2023-01-11T05:07:21.005Z,964.30
2023-01-11T05:08:11.025Z,964.36
2023-01-11T05:09:01.016Z,964.42
2023-01-11T05:09:50.997Z,964.35
2023-01-11T05:10:40.967Z,964.30
2023-01-11T05:11:30.954Z,964.23
2023-01-11T05:12:20.944Z,964.13
2023-01-11T05:13:10.934Z,964.26
2023-01-11T05:14:00.961Z,964.29
2023-01-11T05:14:50.920Z,964.31
2023-01-11T05:15:40.925Z,964.17
2023-01-11T05:16:30.995Z,964.25
2023-01-11T05:17:20.910Z,964.34
2023-01-11T05:18:10.881Z,964.30
2023-01-11T05:19:00.893Z,964.30
2023-01-11T05:19:50.865Z,964.34
2023-01-11T05:20:40.854Z,964.29
2023-01-11T05:21:30.844Z,964.13
2023-01-11T05:22:20.833Z,964.27
2023-01-11T05:23:10.833Z,964.16
2023-01-11T05:24:00.837Z,964.14
2023-01-11T05:24:50.818Z,964.25
2023-01-11T05:25:40.799Z,964.11
2023-01-11T05:26:31.242Z,964.08
2023-01-11T05:27:20.783Z,964.16
2023-01-11T05:28:10.773Z,964.20
2023-01-11T05:29:00.781Z,964.13
2023-01-11T05:29:50.759Z,964.08
2023-01-11T05:30:40.749Z,964.15
2023-01-11T05:31:30.764Z,964.16
2023-01-11T05:32:20.730Z,964.14
2023-01-11T05:33:10.731Z,964.15
2023-01-11T05:34:00.729Z,964.21
2023-01-11T05:34:50.691Z,964.18
2023-01-11T05:35:40.702Z,964.24
2023-01-11T05:36:30.687Z,964.09
2023-01-11T05:37:20.679Z,964.13
2023-01-11T05:38:10.651Z,964.13
2023-01-11T05:39:00.670Z,964.14
2023-01-11T05:39:50.640Z,964.21
2023-01-11T05:40:40.638Z,964.06
2023-01-11T05:41:30.619Z,964.08
2023-01-11T05:42:21.990Z,964.11
2023-01-11T05:43:10.602Z,964.14
2023-01-11T05:44:00.612Z,964.06
2023-01-11T05:44:50.591Z,964.18
2023-01-11T05:45:40.613Z,964.17
2023-01-11T05:46:30.562Z,964.20
2023-01-11T05:47:20.567Z,964.23
2023-01-11T05:48:10.538Z,964.16
2023-01-11T05:49:00.574Z,964.14
2023-01-11T05:49:50.524Z,964.19
2023-01-11T05:50:40.521Z,964.22
2023-01-11T05:51:30.507Z,964.22
2023-01-11T05:52:20.489Z,964.20
2023-01-11T05:53:17.479Z,964.20
2023-01-11T05:54:07.497Z,964.18
2023-01-11T05:54:50.457Z,964.18
2023-01-11T05:55:40.464Z,964.18
2023-01-11T05:56:30.453Z,964.17
2023-01-11T05:57:20.440Z,964.13
2023-01-11T05:58:10.433Z,964.12
2023-01-11T05:59:00.439Z,964.07
2023-01-11T05:59:50.414Z,964.01
2023-01-11T06:00:40.414Z,964.04
2023-01-11T06:01:30.411Z,963.97
2023-01-11T06:02:20.526Z,964.01
2023-01-11T06:03:10.427Z,963.97
2023-01-11T06:04:00.393Z,963.93
2023-01-11T06:04:50.377Z,963.87
2023-01-11T06:05:40.358Z,963.90
2023-01-11T06:06:30.355Z,963.83
2023-01-11T06:07:20.331Z,963.93
2023-01-11T06:08:10.321Z,963.87
2023-01-11T06:09:00.339Z,963.86
2023-01-11T06:09:50.299Z,963.90
2023-01-11T06:10:40.307Z,963.94
2023-01-11T06:11:30.278Z,963.86
2023-01-11T06:12:20.280Z,963.95
2023-01-11T06:13:10.261Z,963.99
2023-01-11T06:14:00.286Z,964.01
2023-01-11T06:14:50.257Z,964.03
2023-01-11T06:15:40.241Z,964.00
2023-01-11T06:16:30.255Z,963.98
2023-01-11T06:17:20.219Z,963.98
2023-01-11T06:18:10.216Z,964.01
2023-01-11T06:19:00.209Z,964.08
2023-01-11T06:19:50.195Z,963.97
2023-01-11T06:20:40.178Z,964.05
2023-01-11T06:21:30.196Z,964.07
2023-01-11T06:22:20.165Z,964.01
2023-01-11T06:23:10.161Z,964.00
2023-01-11T06:24:00.173Z,964.12
2023-01-11T06:24:50.129Z,964.03
2023-01-11T06:25:40.118Z,964.04
2023-01-11T06:26:30.137Z,964.02
2023-01-11T06:27:20.097Z,964.03
2023-01-11T06:28:10.099Z,964.00
2023-01-11T06:29:00.119Z,964.01
2023-01-11T06:29:50.085Z,964.07
2023-01-11T06:30:40.100Z,964.08
2023-01-11T06:31:30.089Z,964.05
2023-01-11T06:32:20.077Z,964.02
2023-01-11T06:33:10.056Z,963.98
2023-01-11T06:34:00.037Z,963.98
2023-01-11T06:34:50.045Z,963.89
2023-01-11T06:35:40.024Z,963.93
2023-01-11T06:36:30.069Z,963.92
2023-01-11T06:37:19.991Z,964.02
2023-01-11T06:38:09.987Z,963.96
2023-01-11T06:39:00.004Z,964.02
2023-01-11T06:39:49.966Z,963.89
2023-01-11T06:40:39.968Z,964.01
2023-01-11T06:41:29.959Z,964.01
2023-01-11T06:42:19.939Z,964.00
2023-01-11T06:43:09.936Z,963.99
2023-01-11T06:43:59.926Z,963.91
2023-01-11T06:44:49.912Z,963.95
2023-01-11T06:45:39.905Z,963.99
2023-01-11T06:46:29.930Z,964.01
2023-01-11T06:47:19.884Z,964.01
2023-01-11T06:48:09.884Z,964.00
2023-01-11T06:48:59.874Z,964.02
2023-01-11T06:49:49.855Z,963.98
2023-01-11T06:50:39.847Z,963.98
2023-01-11T06:51:29.834Z,963.94
2023-01-11T06:52:19.821Z,963.95
2023-01-11T06:53:09.813Z,963.92
2023-01-11T06:53:59.815Z,963.96
2023-01-11T06:54:49.813Z,963.90
2023-01-11T06:55:39.783Z,963.82
2023-01-11T06:56:29.785Z,963.86
2023-01-11T06:57:19.767Z,963.79
2023-01-11T06:58:09.758Z,963.80
2023-01-11T06:58:59.766Z,963.82
2023-01-11T06:59:49.742Z,963.79
2023-01-11T07:00:39.732Z,963.86
2023-01-11T07:01:29.759Z,963.89
2023-01-11T07:02:19.715Z,963.79
2023-01-11T07:03:09.738Z,963.82
2023-01-11T07:03:59.704Z,963.83
2023-01-11T07:04:49.703Z,963.80
2023-01-11T07:05:39.697Z,963.89
2023-01-11T07:06:29.672Z,963.67
2023-01-11T07:07:19.652Z,963.60
2023-01-11T07:08:09.666Z,963.63
2023-01-11T07:08:59.652Z,963.60
2023-01-11T07:09:49.635Z,963.57
2023-01-11T07:10:39.624Z,963.54
2023-01-11T07:11:29.620Z,963.53
2023-01-11T07:12:19.602Z,963.55
2023-01-11T07:13:09.591Z,963.46
2023-01-11T07:13:59.592Z,963.62
2023-01-11T07:14:49.572Z,963.64
2023-01-11T07:15:39.600Z,963.59
2023-01-11T07:16:29.562Z,963.56
2023-01-11T07:17:19.543Z,963.57
2023-01-11T07:18:09.537Z,963.68
2023-01-11T07:18:59.531Z,963.71
2023-01-11T07:19:49.511Z,963.70
2023-01-11T07:20:39.510Z,963.65
2023-01-11T07:21:29.536Z,963.67
2023-01-11T07:22:19.490Z,963.71
2023-01-11T07:23:09.493Z,963.75
2023-01-11T07:23:59.492Z,963.81
2023-01-11T07:24:49.460Z,963.79
2023-01-11T07:25:39.460Z,963.70
2023-01-11T07:26:29.477Z,963.71
2023-01-11T07:27:19.427Z,963.76
2023-01-11T07:28:09.449Z,963.71
2023-01-11T07:28:59.427Z,963.62
2023-01-11T07:29:49.417Z,963.57
2023-01-11T07:30:56.648Z,963.67
2023-01-11T07:31:30.414Z,963.68
2023-01-11T07:32:19.383Z,963.62
2023-01-11T07:33:09.386Z,963.71
2023-01-11T07:33:59.370Z,963.75
2023-01-11T07:34:59.951Z,963.70
2023-01-11T07:35:39.330Z,963.60
2023-01-11T07:36:29.334Z,963.61
2023-01-11T07:37:28.225Z,963.59
2023-01-11T07:38:10.310Z,963.52
2023-01-11T07:38:59.311Z,963.62
2023-01-11T07:39:49.297Z,963.59
2023-01-11T07:40:39.290Z,963.59
2023-01-11T07:41:29.276Z,963.64
2023-01-11T07:42:19.270Z,963.68
2023-01-11T07:43:09.270Z,963.64
2023-01-11T07:43:59.258Z,963.68
2023-01-11T07:44:49.257Z,963.69
2023-01-11T07:45:45.705Z,963.71
2023-01-11T07:46:30.348Z,963.70
2023-01-11T07:47:19.207Z,963.76
2023-01-11T07:48:09.201Z,963.80
2023-01-11T07:48:59.200Z,963.82
2023-01-11T07:49:49.178Z,963.75
2023-01-11T07:50:39.169Z,963.72
2023-01-11T07:51:29.169Z,963.76
2023-01-11T07:52:19.161Z,963.76
2023-01-11T07:53:09.142Z,963.75
2023-01-11T07:53:59.147Z,963.76
2023-01-11T07:54:49.127Z,963.69
2023-01-11T07:55:39.152Z,963.77
2023-01-11T07:56:29.110Z,963.91
2023-01-11T07:57:19.089Z,963.86
2023-01-11T07:58:09.088Z,963.89
2023-01-11T07:58:59.095Z,963.90
2023-01-11T07:59:49.083Z,963.89
2023-01-11T08:00:39.084Z,963.92
2023-01-11T08:01:29.082Z,963.83
2023-01-11T08:02:19.121Z,963.79
2023-01-11T08:03:09.249Z,963.82
2023-01-11T08:03:59.037Z,963.88
2023-01-11T08:04:49.007Z,963.88
2023-01-11T08:05:39.003Z,963.81
2023-01-11T08:06:28.998Z,963.83
2023-01-11T08:07:18.996Z,963.85
2023-01-11T08:08:09.003Z,963.72
2023-01-11T08:08:58.987Z,963.66
2023-01-11T08:09:48.980Z,963.75
2023-01-11T08:10:45.939Z,963.74
2023-01-11T08:11:28.967Z,963.78
2023-01-11T08:12:18.919Z,963.73
2023-01-11T08:13:08.915Z,963.71
2023-01-11T08:13:58.923Z,963.78
2023-01-11T08:14:48.900Z,963.73
2023-01-11T08:15:38.937Z,963.75
2023-01-11T08:16:28.896Z,963.85
2023-01-11T08:17:18.881Z,963.76
2023-01-11T08:18:08.866Z,963.78
2023-01-11T08:18:58.866Z,963.70
2023-01-11T08:19:48.854Z,963.68
2023-01-11T08:20:38.836Z,963.74
2023-01-11T08:21:28.825Z,963.77
2023-01-11T08:22:18.817Z,963.81
2023-01-11T08:23:08.814Z,963.78
2023-01-11T08:23:58.822Z,963.78
2023-01-11T08:24:48.787Z,963.80
2023-01-11T08:25:38.780Z,963.73
2023-01-11T08:26:28.770Z,963.77
2023-01-11T08:27:18.758Z,963.77
2023-01-11T08:28:08.760Z,963.78
2023-01-11T08:28:58.757Z,963.73
2023-01-11T08:29:48.832Z,963.65
2023-01-11T08:30:38.750Z,963.69
2023-01-11T08:31:28.754Z,963.65
2023-01-11T08:32:18.708Z,963.78
2023-01-11T08:33:08.709Z,963.76
2023-01-11T08:33:58.697Z,963.76
2023-01-11T08:34:48.679Z,963.72
2023-01-11T08:35:38.662Z,963.70
2023-01-11T08:36:28.667Z,963.78
2023-01-11T08:37:18.646Z,963.72
2023-01-11T08:38:08.641Z,963.70
2023-01-11T08:38:58.644Z,963.65
2023-01-11T08:39:48.637Z,963.66
2023-01-11T08:40:38.628Z,963.66
2023-01-11T08:41:28.604Z,963.71
2023-01-11T08:42:18.588Z,963.71
2023-01-11T08:43:08.595Z,963.62
2023-01-11T08:43:58.585Z,963.63
2023-01-11T08:44:48.575Z,963.68
2023-01-11T08:45:38.561Z,963.64
2023-01-11T08:46:28.575Z,963.64
2023-01-11T08:47:18.537Z,963.61
2023-01-11T08:48:08.526Z,963.64
2023-01-11T08:48:58.537Z,963.61
2023-01-11T08:49:48.516Z,963.73
2023-01-11T08:50:38.507Z,963.74
2023-01-11T08:51:28.495Z,963.71
2023-01-11T08:52:18.477Z,963.61
2023-01-11T08:53:08.934Z,963.59
2023-01-11T08:53:58.473Z,963.59
2023-01-11T08:54:48.447Z,963.58
2023-01-11T08:55:38.460Z,963.53
2023-01-11T08:56:28.444Z,963.74
2023-01-11T08:57:18.428Z,963.64
2023-01-11T08:58:08.416Z,963.68
2023-01-11T08:58:58.442Z,963.68
2023-01-11T08:59:48.393Z,963.64
2023-01-11T09:00:38.387Z,963.67
2023-01-11T09:01:28.409Z,963.65
2023-01-11T09:02:18.362Z,963.79
2023-01-11T09:03:08.407Z,963.72
2023-01-11T09:03:58.363Z,963.75
2023-01-11T09:04:48.356Z,963.83
2023-01-11T09:05:38.327Z,963.77
2023-01-11T09:06:28.320Z,963.80
2023-01-11T09:07:18.314Z,963.93
2023-01-11T09:08:08.301Z,963.79
2023-01-11T09:08:58.309Z,963.86
2023-01-11T09:09:48.293Z,963.87
2023-01-11T09:10:38.288Z,963.83
2023-01-11T09:11:28.262Z,963.80
2023-01-11T09:12:18.255Z,963.79
2023-01-11T09:13:08.252Z,963.72
2023-01-11T09:13:58.250Z,963.79
2023-01-11T09:14:48.233Z,963.80
2023-01-11T09:15:38.212Z,963.78
2023-01-11T09:16:28.212Z,963.76
2023-01-11T09:17:18.226Z,963.83
2023-01-11T09:18:08.201Z,963.89
2023-01-11T09:18:58.198Z,963.84
2023-01-11T09:19:48.171Z,963.86
2023-01-11T09:20:38.173Z,963.83
2023-01-11T09:21:28.150Z,963.97
2023-01-11T09:22:18.151Z,963.98
2023-01-11T09:23:08.157Z,963.95
2023-01-11T09:23:58.144Z,963.97
2023-01-11T09:24:48.122Z,963.89
2023-01-11T09:25:38.115Z,964.01
2023-01-11T09:26:28.092Z,964.11
2023-01-11T09:27:18.153Z,964.09
2023-01-11T09:28:08.080Z,964.01
2023-01-11T09:28:58.116Z,963.94
2023-01-11T09:29:48.060Z,963.99
2023-01-11T09:30:38.059Z,964.00
2023-01-11T09:31:28.096Z,964.06
2023-01-11T09:32:18.032Z,963.96
2023-01-11T09:33:08.021Z,963.99
2023-01-11T09:33:58.033Z,963.90
2023-01-11T09:34:48.017Z,963.94
2023-01-11T09:35:37.989Z,964.04
2023-01-11T09:36:27.990Z,964.05
2023-01-11T09:37:17.980Z,964.07
2023-01-11T09:38:07.990Z,964.11
2023-01-11T09:38:57.969Z,963.89
2023-01-11T09:39:47.955Z,964.04
2023-01-11T09:40:37.931Z,964.11
2023-01-11T09:41:27.935Z,964.00
2023-01-11T09:42:17.918Z,964.04
2023-01-11T09:43:07.917Z,964.03
2023-01-11T09:43:57.911Z,964.07
2023-01-11T09:44:47.892Z,964.05
2023-01-11T09:45:37.884Z,964.03
2023-01-11T09:46:27.946Z,964.08
2023-01-11T09:47:17.858Z,964.03
2023-01-11T09:48:07.870Z,964.11
2023-01-11T09:48:57.856Z,964.09
2023-01-11T09:49:47.829Z,964.14
2023-01-11T09:50:37.836Z,964.14
2023-01-11T09:51:27.815Z,964.14
2023-01-11T09:52:17.810Z,964.22
2023-01-11T09:53:07.805Z,964.16
2023-01-11T09:53:58.233Z,964.16
2023-01-11T09:54:47.878Z,964.23
2023-01-11T09:55:37.868Z,964.16
2023-01-11T09:56:27.789Z,964.19
2023-01-11T09:57:17.838Z,964.23
2023-01-11T09:58:07.826Z,964.25
2023-01-11T09:58:57.843Z,964.19
2023-01-11T09:59:47.762Z,964.17
2023-01-11T10:00:37.815Z,964.11
2023-01-11T10:01:27.723Z,964.09
2023-01-11T10:02:17.700Z,964.05
2023-01-11T10:03:07.691Z,964.06
2023-01-11T10:03:57.698Z,964.04
2023-01-11T10:04:47.748Z,964.03
2023-01-11T10:05:37.671Z,964.07
2023-01-11T10:06:27.648Z,964.12
2023-01-11T10:07:17.644Z,964.04
2023-01-11T10:18:25.529Z,964.06
2023-01-11T10:18:28.854Z,964.04
2023-01-11T10:18:28.982Z,964.02
2023-01-11T10:18:29.557Z,963.99
2023-01-11T10:18:30.324Z,964.05
2023-01-11T10:19:25.752Z,964.03
2023-01-11T10:19:48.547Z,964.01
2023-01-11T10:20:37.541Z,964.00
2023-01-11T10:21:27.484Z,963.96
2023-01-11T10:22:17.472Z,963.91
2023-01-11T10:23:07.459Z,963.88
2023-01-11T10:23:57.460Z,964.00
2023-01-11T10:24:47.461Z,964.03
2023-01-11T10:25:37.436Z,964.03
2023-01-11T10:26:27.441Z,964.06
2023-01-11T10:27:17.457Z,964.02
2023-01-11T10:28:07.419Z,963.96
2023-01-11T10:29:04.386Z,963.99
2023-01-11T10:29:47.386Z,964.02
2023-01-11T10:30:37.366Z,963.99